createdAt,value
2023-04-09T00:00:11.308Z,51.34
2023-04-09T00:01:11.266Z,50.91
2023-04-09T00:02:11.311Z,51.03
2023-04-09T00:03:11.293Z,50.72
2023-04-09T00:04:11.222Z,50.60
2023-04-09T00:05:11.227Z,50.54
2023-04-09T00:06:11.192Z,50.54
2023-04-09T00:07:11.209Z,50.51
2023-04-09T00:08:11.158Z,50.33
2023-04-09T00:09:11.191Z,50.33
2023-04-09T00:10:11.145Z,50.18
2023-04-09T00:11:11.184Z,50.12
2023-04-09T00:12:11.131Z,50.03
2023-04-09T00:13:11.142Z,49.79
2023-04-09T00:14:11.095Z,50.00
2023-04-09T00:15:14.998Z,50.12
2023-04-09T00:16:11.166Z,49.76
2023-04-09T00:17:11.100Z,49.73
2023-04-09T00:18:11.057Z,49.70
2023-04-09T00:19:11.037Z,49.76
2023-04-09T00:20:11.023Z,49.73
2023-04-09T00:21:11.025Z,49.67
2023-04-09T00:22:11.013Z,49.76
2023-04-09T00:23:12.965Z,49.65
2023-04-09T00:24:10.964Z,49.56
2023-04-09T00:25:10.988Z,49.53
2023-04-09T00:26:10.935Z,49.44
2023-04-09T00:27:10.925Z,49.24
2023-04-09T00:28:10.936Z,49.21
2023-04-09T00:29:10.916Z,49.01
2023-04-09T00:30:10.896Z,49.15
2023-04-09T00:31:10.908Z,49.18
2023-04-09T00:32:10.864Z,49.15
2023-04-09T00:33:10.849Z,49.27
2023-04-09T00:34:10.870Z,49.30
2023-04-09T00:35:10.819Z,49.21
2023-04-09T00:36:10.855Z,49.30
2023-04-09T00:37:10.827Z,49.47
2023-04-09T00:38:10.835Z,49.50
2023-04-09T00:39:10.788Z,49.38
2023-04-09T00:40:10.831Z,49.24
2023-04-09T00:41:10.772Z,49.24
2023-04-09T00:42:10.739Z,49.15
2023-04-09T00:43:10.824Z,49.12
2023-04-09T00:44:10.724Z,49.12
2023-04-09T00:45:10.712Z,49.10
2023-04-09T00:46:10.776Z,49.12
2023-04-09T00:47:10.696Z,49.30
2023-04-09T00:48:10.765Z,49.47
2023-04-09T00:49:10.760Z,49.56
2023-04-09T00:50:10.652Z,49.47
2023-04-09T00:51:10.671Z,49.35
2023-04-09T00:52:10.662Z,49.50
2023-04-09T00:53:10.617Z,49.65
2023-04-09T00:54:10.627Z,49.76
2023-04-09T00:55:10.596Z,49.79
2023-04-09T00:56:10.587Z,49.70
2023-04-09T00:57:10.574Z,49.82
2023-04-09T00:58:10.606Z,49.76
2023-04-09T00:59:10.539Z,49.85
2023-04-09T01:00:10.533Z,50.15
2023-04-09T01:01:10.538Z,50.18
2023-04-09T01:02:10.628Z,50.24
2023-04-09T01:03:17.093Z,50.48
2023-04-09T01:04:10.456Z,50.60
2023-04-09T01:05:10.456Z,50.85
2023-04-09T01:06:10.430Z,50.97
2023-04-09T01:07:10.412Z,50.72
2023-04-09T01:08:10.399Z,50.85
2023-04-09T01:09:10.420Z,50.78
2023-04-09T01:10:10.399Z,51.03
2023-04-09T01:11:10.374Z,51.06
2023-04-09T01:12:10.376Z,51.00
2023-04-09T01:13:10.364Z,51.19
2023-04-09T01:14:10.328Z,51.28
2023-04-09T01:15:10.332Z,51.38
2023-04-09T01:16:10.342Z,51.38
2023-04-09T01:17:10.291Z,51.44
2023-04-09T01:18:10.281Z,51.60
2023-04-09T01:19:10.297Z,51.69
2023-04-09T01:20:10.268Z,51.72
2023-04-09T01:21:10.253Z,51.85
2023-04-09T01:22:10.223Z,51.75
2023-04-09T01:23:10.221Z,51.85
2023-04-09T01:24:10.209Z,51.72
2023-04-09T01:25:10.215Z,51.60
2023-04-09T01:26:10.181Z,51.79
2023-04-09T01:27:10.188Z,51.75
2023-04-09T01:28:10.185Z,51.63
2023-04-09T01:29:10.144Z,51.82
2023-04-09T01:30:10.121Z,51.72
2023-04-09T01:31:10.164Z,51.72
2023-04-09T01:32:10.123Z,51.95
2023-04-09T01:33:10.141Z,51.91
2023-04-09T01:34:10.160Z,51.98
2023-04-09T01:35:10.072Z,52.01
2023-04-09T01:36:10.080Z,51.98
2023-04-09T01:37:10.051Z,52.20
2023-04-09T01:38:10.050Z,52.24
2023-04-09T01:39:10.034Z,52.30
2023-04-09T01:40:10.022Z,52.50
2023-04-09T01:41:09.981Z,52.33
2023-04-09T01:42:09.970Z,52.47
2023-04-09T01:43:09.956Z,52.56
2023-04-09T01:44:10.002Z,52.63
2023-04-09T01:45:09.962Z,52.40
2023-04-09T01:46:09.987Z,52.56
2023-04-09T01:47:09.908Z,52.43
2023-04-09T01:48:09.911Z,52.50
2023-04-09T01:49:09.911Z,52.47
2023-04-09T01:50:09.888Z,52.47
2023-04-09T01:51:09.894Z,52.37
2023-04-09T01:52:09.892Z,52.30
2023-04-09T01:53:09.866Z,52.37
2023-04-09T01:54:09.852Z,52.20
2023-04-09T01:55:09.829Z,52.30
2023-04-09T01:56:09.838Z,52.17
2023-04-09T01:57:09.788Z,52.14
2023-04-09T01:58:09.796Z,52.04
2023-04-09T01:59:09.785Z,51.85
2023-04-09T02:00:09.752Z,51.82
2023-04-09T02:01:09.750Z,51.85
2023-04-09T02:02:09.799Z,51.85
2023-04-09T02:03:09.829Z,51.66
2023-04-09T02:04:09.706Z,51.98
2023-04-09T02:05:09.686Z,51.41
2023-04-09T02:06:09.692Z,51.53
2023-04-09T02:07:09.722Z,51.31
2023-04-09T02:08:09.668Z,51.53
2023-04-09T02:09:09.639Z,51.16
2023-04-09T02:10:09.658Z,51.22
2023-04-09T02:11:09.602Z,51.28
2023-04-09T02:12:09.613Z,51.19
2023-04-09T02:13:09.592Z,50.97
2023-04-09T02:14:09.598Z,51.09
2023-04-09T02:15:09.572Z,51.03
2023-04-09T02:16:09.564Z,50.82
2023-04-09T02:17:09.554Z,50.78
2023-04-09T02:18:09.514Z,50.72
2023-04-09T02:19:09.512Z,50.72
2023-04-09T02:20:09.540Z,50.39
2023-04-09T02:21:09.499Z,50.45
2023-04-09T02:22:09.482Z,50.57
2023-04-09T02:23:09.459Z,50.66
2023-04-09T02:24:09.456Z,50.48
2023-04-09T02:25:09.450Z,50.54
2023-04-09T02:26:09.462Z,50.42
2023-04-09T02:27:09.433Z,50.57
2023-04-09T02:28:09.401Z,50.69
2023-04-09T02:29:09.393Z,50.54
2023-04-09T02:30:09.397Z,50.63
2023-04-09T02:31:09.386Z,50.57
2023-04-09T02:32:09.363Z,50.63
2023-04-09T02:33:09.333Z,50.72
2023-04-09T02:34:09.345Z,50.63
2023-04-09T02:35:09.352Z,50.72
2023-04-09T02:36:09.374Z,50.72
2023-04-09T02:37:09.318Z,50.88
2023-04-09T02:38:09.311Z,50.60
2023-04-09T02:39:09.273Z,50.72
2023-04-09T02:40:09.245Z,50.88
2023-04-09T02:41:09.265Z,50.78
2023-04-09T02:42:09.231Z,50.94
2023-04-09T02:43:09.215Z,51.06
2023-04-09T02:44:09.212Z,51.28
2023-04-09T02:45:09.215Z,51.22
2023-04-09T02:46:09.189Z,51.16
2023-04-09T02:47:09.226Z,51.31
2023-04-09T02:48:09.142Z,51.44
2023-04-09T02:49:09.152Z,51.41
2023-04-09T02:50:09.152Z,51.79
2023-04-09T02:51:09.112Z,51.31
2023-04-09T02:52:09.105Z,51.72
2023-04-09T02:53:09.104Z,51.60
2023-04-09T02:54:09.071Z,51.56
2023-04-09T02:55:09.060Z,51.63
2023-04-09T02:56:09.081Z,51.66
2023-04-09T02:57:09.076Z,51.75
2023-04-09T02:58:09.026Z,51.85
2023-04-09T02:59:09.014Z,51.66
2023-04-09T03:00:09.007Z,51.72
2023-04-09T03:01:09.119Z,51.79
2023-04-09T03:02:09.059Z,51.60
2023-04-09T03:03:09.106Z,51.50
2023-04-09T03:04:09.027Z,51.63
2023-04-09T03:05:08.938Z,51.47
2023-04-09T03:06:08.931Z,51.44
2023-04-09T03:07:08.909Z,51.28
2023-04-09T03:08:08.932Z,51.31
2023-04-09T03:09:08.882Z,51.44
2023-04-09T03:10:08.900Z,51.34
2023-04-09T03:11:08.866Z,51.41
2023-04-09T03:12:08.884Z,51.50
2023-04-09T03:13:08.872Z,51.41
2023-04-09T03:14:08.823Z,51.38
2023-04-09T03:15:08.821Z,51.47
2023-04-09T03:16:08.825Z,51.34
2023-04-09T03:17:08.806Z,51.56
2023-04-09T03:18:08.873Z,51.56
2023-04-09T03:19:08.795Z,51.69
2023-04-09T03:20:08.770Z,51.91
2023-04-09T03:21:08.745Z,51.82
2023-04-09T03:22:08.740Z,51.98
2023-04-09T03:23:08.709Z,52.08
2023-04-09T03:24:08.728Z,52.14
2023-04-09T03:25:08.717Z,51.98
2023-04-09T03:26:08.692Z,52.17
2023-04-09T03:27:08.676Z,52.24
2023-04-09T03:28:08.646Z,52.37
2023-04-09T03:29:08.644Z,52.33
2023-04-09T03:30:08.668Z,52.50
2023-04-09T03:31:08.701Z,52.56
2023-04-09T03:32:08.645Z,52.83
2023-04-09T03:33:08.612Z,52.69
2023-04-09T03:34:08.569Z,52.60
2023-04-09T03:35:08.580Z,52.96
2023-04-09T03:36:08.588Z,52.89
2023-04-09T03:37:08.563Z,52.93
2023-04-09T03:38:08.562Z,53.13
2023-04-09T03:39:08.512Z,53.16
2023-04-09T03:40:08.498Z,53.26
2023-04-09T03:41:08.553Z,53.57
2023-04-09T03:42:08.501Z,53.40
2023-04-09T03:43:08.461Z,53.64
2023-04-09T03:44:08.486Z,53.84
2023-04-09T03:45:08.436Z,53.84
2023-04-09T03:46:08.448Z,53.88
2023-04-09T03:47:08.459Z,54.08
2023-04-09T03:48:08.440Z,53.95
2023-04-09T03:49:08.429Z,54.12
2023-04-09T03:50:08.378Z,54.33
2023-04-09T03:51:08.377Z,54.33
2023-04-09T03:52:08.349Z,54.22
2023-04-09T03:53:08.369Z,54.33
2023-04-09T03:54:08.351Z,54.19
2023-04-09T03:55:08.334Z,54.40
2023-04-09T03:56:08.305Z,54.33
2023-04-09T03:57:08.299Z,54.19
2023-04-09T03:58:08.275Z,54.44
2023-04-09T03:59:08.279Z,54.47
2023-04-09T04:00:08.249Z,54.68
2023-04-09T04:01:08.251Z,54.51
2023-04-09T04:02:08.366Z,54.76
2023-04-09T04:03:08.341Z,54.61
2023-04-09T04:04:08.230Z,54.61
2023-04-09T04:05:08.209Z,54.68
2023-04-09T04:06:08.187Z,54.83
2023-04-09T04:07:08.163Z,54.61
2023-04-09T04:08:08.159Z,54.72
2023-04-09T04:09:08.165Z,54.90
2023-04-09T04:10:08.123Z,54.65
2023-04-09T04:11:08.133Z,54.51
2023-04-09T04:12:08.101Z,54.65
2023-04-09T04:13:08.127Z,54.58
2023-04-09T04:14:08.084Z,54.54
2023-04-09T04:15:08.059Z,54.65
2023-04-09T04:16:08.089Z,54.58
2023-04-09T04:17:08.046Z,54.47
2023-04-09T04:18:08.034Z,54.40
2023-04-09T04:19:08.012Z,54.47
2023-04-09T04:20:07.994Z,54.54
2023-04-09T04:21:07.991Z,54.72
2023-04-09T04:22:08.015Z,54.61
2023-04-09T04:23:07.950Z,54.65
2023-04-09T04:24:07.955Z,54.44
2023-04-09T04:25:07.981Z,54.58
2023-04-09T04:26:07.933Z,54.61
2023-04-09T04:27:07.892Z,54.86
2023-04-09T04:28:07.920Z,54.76
2023-04-09T04:29:07.886Z,54.61
2023-04-09T04:30:07.872Z,54.72
2023-04-09T04:31:07.872Z,54.86
2023-04-09T04:32:07.837Z,54.79
2023-04-09T04:33:07.830Z,54.93
2023-04-09T04:34:07.847Z,54.93
2023-04-09T04:35:07.835Z,55.11
2023-04-09T04:36:07.808Z,55.04
2023-04-09T04:37:07.776Z,54.97
2023-04-09T04:38:07.803Z,55.04
2023-04-09T04:39:07.741Z,55.01
2023-04-09T04:40:07.786Z,55.11
2023-04-09T04:41:07.722Z,55.01
2023-04-09T04:42:07.723Z,55.04
2023-04-09T04:43:07.710Z,55.29
2023-04-09T04:44:07.749Z,55.33
2023-04-09T04:45:07.717Z,55.01
2023-04-09T04:46:07.742Z,55.22
2023-04-09T04:47:07.748Z,55.26
2023-04-09T04:48:07.701Z,55.29
2023-04-09T04:49:07.635Z,55.40
2023-04-09T04:50:07.615Z,54.90
2023-04-09T04:51:07.630Z,55.55
2023-04-09T04:52:07.597Z,55.19
2023-04-09T04:53:07.584Z,55.40
2023-04-09T04:54:07.574Z,55.26
2023-04-09T04:55:07.582Z,55.33
2023-04-09T04:56:07.578Z,55.51
2023-04-09T04:57:07.528Z,55.44
2023-04-09T04:58:07.546Z,55.44
2023-04-09T04:59:07.539Z,55.62
2023-04-09T05:00:07.486Z,55.59
2023-04-09T05:01:07.520Z,55.48
2023-04-09T05:02:07.523Z,55.66
2023-04-09T05:03:07.512Z,55.59
2023-04-09T05:04:07.439Z,55.33
2023-04-09T05:05:07.422Z,55.48
2023-04-09T05:06:07.421Z,55.37
2023-04-09T05:07:07.392Z,55.55
2023-04-09T05:08:07.538Z,55.48
2023-04-09T05:09:07.404Z,55.62
2023-04-09T05:10:07.393Z,55.66
2023-04-09T05:11:07.358Z,55.85
2023-04-09T05:12:07.336Z,55.66
2023-04-09T05:13:07.341Z,55.92
2023-04-09T05:14:07.394Z,55.88
2023-04-09T05:15:07.311Z,55.99
2023-04-09T05:16:07.279Z,55.77
2023-04-09T05:17:07.279Z,56.22
2023-04-09T05:18:07.303Z,56.37
2023-04-09T05:19:07.313Z,56.11
2023-04-09T05:20:07.257Z,56.67
2023-04-09T05:21:07.222Z,56.29
2023-04-09T05:22:07.210Z,56.45
2023-04-09T05:23:07.197Z,56.45
2023-04-09T05:24:07.210Z,56.22
2023-04-09T05:25:07.192Z,56.18
2023-04-09T05:26:07.215Z,56.07
2023-04-09T05:27:07.167Z,56.18
2023-04-09T05:28:07.150Z,56.07
2023-04-09T05:29:07.123Z,56.07
2023-04-09T05:30:07.114Z,55.99
2023-04-09T05:31:07.129Z,56.07
2023-04-09T05:32:07.114Z,56.14
2023-04-09T05:33:07.069Z,56.29
2023-04-09T05:34:07.070Z,55.99
2023-04-09T05:35:07.062Z,56.14
2023-04-09T05:36:07.092Z,56.22
2023-04-09T05:37:07.045Z,56.11
2023-04-09T05:38:07.021Z,56.26
2023-04-09T05:39:07.010Z,56.26
2023-04-09T05:40:07.029Z,56.60
2023-04-09T05:41:06.987Z,56.75
2023-04-09T05:42:06.991Z,56.56
2023-04-09T05:43:06.964Z,56.60
2023-04-09T05:44:06.973Z,56.56
2023-04-09T05:45:06.973Z,56.48
2023-04-09T05:46:06.985Z,55.99
2023-04-09T05:47:06.892Z,56.03
2023-04-09T05:48:06.932Z,55.74
2023-04-09T05:49:06.892Z,55.26
2023-04-09T05:50:06.882Z,54.68
2023-04-09T05:51:06.861Z,54.47
2023-04-09T05:52:06.829Z,54.40
2023-04-09T05:53:06.823Z,54.37
2023-04-09T05:54:06.856Z,54.05
2023-04-09T05:55:06.832Z,54.26
2023-04-09T05:56:06.790Z,54.22
2023-04-09T05:57:06.781Z,54.26
2023-04-09T05:58:06.771Z,54.26
2023-04-09T05:59:06.757Z,54.44
2023-04-09T06:00:06.768Z,54.83
2023-04-09T06:01:06.753Z,55.19
2023-04-09T06:02:06.820Z,55.62
2023-04-09T06:03:06.776Z,55.96
2023-04-09T06:04:06.786Z,56.48
2023-04-09T06:05:06.674Z,56.67
2023-04-09T06:06:06.702Z,57.37
2023-04-09T06:07:06.654Z,57.84
2023-04-09T06:08:06.632Z,58.61
2023-04-09T06:09:06.646Z,59.06
2023-04-09T06:10:06.627Z,59.31
2023-04-09T06:11:06.608Z,59.06
2023-04-09T06:12:06.598Z,59.31
2023-04-09T06:13:06.575Z,59.74
2023-04-09T06:14:06.563Z,60.68
2023-04-09T06:15:06.563Z,61.30
2023-04-09T06:16:06.557Z,61.30
2023-04-09T06:17:06.543Z,61.57
2023-04-09T06:18:06.668Z,62.44
2023-04-09T06:19:06.505Z,62.91
2023-04-09T06:20:06.512Z,63.38
2023-04-09T06:21:06.534Z,63.38
2023-04-09T06:22:06.478Z,63.77
2023-04-09T06:23:06.454Z,63.91
2023-04-09T06:24:06.472Z,64.75
2023-04-09T06:25:06.405Z,65.30
2023-04-09T06:26:06.441Z,65.10
2023-04-09T06:27:06.575Z,65.56
2023-04-09T06:28:06.384Z,66.49
2023-04-09T06:29:06.402Z,68.83
2023-04-09T06:30:06.397Z,71.29
2023-04-09T06:31:06.411Z,73.27
2023-04-09T06:32:06.353Z,74.84
2023-04-09T06:33:06.348Z,75.78
2023-04-09T06:34:06.298Z,77.82
2023-04-09T06:35:06.309Z,78.84
2023-04-09T06:36:06.333Z,80.65
2023-04-09T06:37:06.301Z,81.75
2023-04-09T06:38:06.257Z,84.81
2023-04-09T06:39:06.258Z,87.63
2023-04-09T06:40:06.248Z,92.35
2023-04-09T06:41:06.211Z,93.69
2023-04-09T06:42:06.236Z,94.21
2023-04-09T06:43:06.275Z,94.93
2023-04-09T06:44:06.183Z,94.56
2023-04-09T06:45:06.159Z,94.53
2023-04-09T06:46:06.188Z,93.17
2023-04-09T06:47:06.200Z,95.18
2023-04-09T06:48:06.127Z,95.42
2023-04-09T06:49:06.122Z,101.83
2023-04-09T06:50:06.130Z,103.02
2023-04-09T06:51:06.099Z,105.94
2023-04-09T06:52:06.098Z,109.24
2023-04-09T06:53:06.084Z,110.61
2023-04-09T06:54:06.074Z,112.23
2023-04-09T06:55:06.125Z,112.61
2023-04-09T06:56:06.204Z,121.83
2023-04-09T06:57:06.024Z,129.23
2023-04-09T06:58:06.033Z,141.28
2023-04-09T06:59:05.999Z,155.96
2023-04-09T07:00:05.982Z,163.70
2023-04-09T07:01:05.967Z,174.22
2023-04-09T07:02:06.137Z,186.29
2023-04-09T07:03:06.129Z,208.10
2023-04-09T07:04:06.016Z,222.23
2023-04-09T07:05:05.962Z,241.20
2023-04-09T07:06:05.930Z,248.63
2023-04-09T07:07:05.873Z,241.73
2023-04-09T07:08:05.868Z,234.19
2023-04-09T07:09:05.848Z,220.89
2023-04-09T07:10:05.857Z,205.77
2023-04-09T07:11:05.853Z,192.58
2023-04-09T07:12:05.822Z,183.14
2023-04-09T07:13:05.831Z,173.68
2023-04-09T07:14:05.808Z,167.79
2023-04-09T07:15:05.826Z,172.26
2023-04-09T07:16:05.826Z,176.23
2023-04-09T07:17:05.750Z,173.32
2023-04-09T07:18:05.834Z,174.95
2023-04-09T07:19:05.739Z,174.04
2023-04-09T07:20:05.738Z,172.79
2023-04-09T07:21:05.725Z,174.95
2023-04-09T07:22:05.690Z,180.20
2023-04-09T07:23:05.688Z,187.45
2023-04-09T07:24:05.716Z,195.31
2023-04-09T07:25:05.695Z,227.11
2023-04-09T07:26:05.711Z,251.28
2023-04-09T07:27:05.746Z,269.08
2023-04-09T07:28:05.635Z,286.32
2023-04-09T07:29:05.627Z,315.87
2023-04-09T07:30:05.598Z,352.22
2023-04-09T07:31:05.603Z,392.88
2023-04-09T07:32:05.649Z,446.10
2023-04-09T07:33:05.591Z,488.25
2023-04-09T07:34:05.629Z,532.77
2023-04-09T07:35:05.519Z,559.86
2023-04-09T07:36:05.540Z,572.26
2023-04-09T07:37:05.541Z,590.36
2023-04-09T07:38:05.516Z,610.75
2023-04-09T07:39:05.497Z,644.13
2023-04-09T07:40:05.454Z,650.37
2023-04-09T07:41:05.753Z,650.37
2023-04-09T07:42:05.435Z,662.55
2023-04-09T07:43:05.439Z,654.16
2023-04-09T07:44:05.424Z,627.88
2023-04-09T07:45:05.404Z,611.31
2023-04-09T07:46:05.395Z,590.36
2023-04-09T07:47:05.462Z,578.16
2023-04-09T07:48:05.422Z,552.04
2023-04-09T07:49:05.362Z,517.99
2023-04-09T07:50:05.353Z,494.72
2023-04-09T07:51:05.319Z,473.79
2023-04-09T07:52:05.329Z,460.16
2023-04-09T07:53:05.300Z,471.46
2023-04-09T07:54:05.283Z,510.51
2023-04-09T07:55:05.284Z,543.99
2023-04-09T07:56:05.278Z,575.20
2023-04-09T07:57:05.247Z,620.34
2023-04-09T07:58:05.269Z,674.53
2023-04-09T07:59:05.226Z,689.05
2023-04-09T08:00:05.226Z,682.06
2023-04-09T08:01:05.223Z,675.20
2023-04-09T08:02:05.242Z,677.93
2023-04-09T08:03:05.459Z,630.23
2023-04-09T08:04:05.390Z,602.54
2023-04-09T08:05:05.216Z,589.32
2023-04-09T08:06:05.140Z,573.72
2023-04-09T08:07:05.146Z,568.38
2023-04-09T08:08:05.120Z,557.07
2023-04-09T08:09:05.115Z,541.36
2023-04-09T08:10:05.100Z,548.88
2023-04-09T08:11:05.071Z,610.75
2023-04-09T08:12:05.060Z,693.32
2023-04-09T08:13:05.079Z,753.92
2023-04-09T08:14:05.047Z,784.71
2023-04-09T08:15:05.044Z,820.62
2023-04-09T08:16:05.025Z,849.65
2023-04-09T08:17:05.006Z,914.34
2023-04-09T08:18:05.006Z,951.20
2023-04-09T08:19:04.998Z,1006.74
2023-04-09T08:20:04.977Z,1033.82
2023-04-09T08:21:04.945Z,1042.64
2023-04-09T08:22:04.937Z,1040.22
2023-04-09T08:23:04.934Z,1025.15
2023-04-09T08:24:04.938Z,1059.06
2023-04-09T08:25:04.958Z,1063.24
2023-04-09T08:26:04.900Z,1071.71
2023-04-09T08:27:04.881Z,1034.61
2023-04-09T08:28:04.884Z,998.52
2023-04-09T08:29:04.857Z,956.61
2023-04-09T08:30:04.860Z,912.48
2023-04-09T08:31:04.824Z,834.37
2023-04-09T08:32:04.843Z,750.14
2023-04-09T08:33:04.838Z,673.17
2023-04-09T08:34:04.792Z,608.54
2023-04-09T08:35:04.938Z,558.92
2023-04-09T08:36:04.842Z,507.81
2023-04-09T08:37:04.781Z,486.13
2023-04-09T08:38:04.754Z,474.79
2023-04-09T08:39:04.768Z,454.24
2023-04-09T08:40:04.797Z,436.25
2023-04-09T08:41:04.700Z,429.28
2023-04-09T08:42:04.697Z,420.94
2023-04-09T08:43:04.691Z,419.89
2023-04-09T08:44:04.737Z,443.74
2023-04-09T08:45:04.664Z,505.89
2023-04-09T08:46:04.807Z,579.16
2023-04-09T08:47:04.641Z,674.53
2023-04-09T08:48:04.701Z,774.77
2023-04-09T08:49:04.599Z,867.74
2023-04-09T08:50:04.600Z,935.98
2023-04-09T08:51:04.573Z,960.03
2023-04-09T08:52:04.737Z,940.56
2023-04-09T08:53:04.604Z,887.20
2023-04-09T08:54:05.149Z,890.73
2023-04-09T08:55:04.601Z,942.54
2023-04-09T08:56:04.504Z,980.32
2023-04-09T08:57:04.548Z,1104.27
2023-04-09T08:58:04.489Z,1198.75
2023-04-09T08:59:04.765Z,1232.81
2023-04-09T09:00:04.465Z,1247.68
2023-04-09T09:01:04.463Z,1343.66
2023-04-09T09:02:04.548Z,1399.58
2023-04-09T09:03:04.827Z,1330.37
2023-04-09T09:04:04.642Z,1276.09
2023-04-09T09:05:04.462Z,1162.49
2023-04-09T09:06:04.395Z,1072.57
2023-04-09T09:07:04.394Z,1031.44
2023-04-09T09:08:04.365Z,1011.28
2023-04-09T09:09:04.352Z,994.09
2023-04-09T09:10:04.345Z,1015.86
2023-04-09T09:11:04.361Z,1007.49
2023-04-09T09:12:04.308Z,1003.73
2023-04-09T09:13:04.318Z,1064.92
2023-04-09T09:14:04.336Z,1041.83
2023-04-09T09:15:04.289Z,1014.33
2023-04-09T09:16:04.271Z,964.16
2023-04-09T09:17:04.307Z,971.12
2023-04-09T09:18:04.328Z,960.71
2023-04-09T09:19:04.227Z,983.91
2023-04-09T09:20:04.234Z,970.42
2023-04-09T09:21:05.174Z,991.89
2023-04-09T09:22:04.225Z,1025.93
2023-04-09T09:23:04.206Z,1024.37
2023-04-09T09:24:04.166Z,1025.15
2023-04-09T09:25:04.164Z,1094.39
2023-04-09T09:26:04.143Z,1159.48
2023-04-09T09:27:04.130Z,1176.73
2023-04-09T09:28:04.123Z,1124.58
2023-04-09T09:29:04.125Z,1102.46
2023-04-09T09:30:04.132Z,1103.36
2023-04-09T09:31:04.151Z,1082.06
2023-04-09T09:32:04.083Z,1098.86
2023-04-09T09:33:04.052Z,1057.39
2023-04-09T09:34:04.041Z,994.82
2023-04-09T09:35:04.060Z,910.01
2023-04-09T09:36:04.098Z,883.12
2023-04-09T09:37:04.023Z,870.55
2023-04-09T09:38:04.055Z,883.12
2023-04-09T09:39:03.981Z,883.12
2023-04-09T09:40:03.990Z,921.23
2023-04-09T09:41:03.973Z,911.25
2023-04-09T09:42:03.938Z,962.09
2023-04-09T09:43:03.961Z,1029.86
2023-04-09T09:44:03.923Z,1132.15
2023-04-09T09:45:03.938Z,1208.44
2023-04-09T09:46:03.958Z,1326.43
2023-04-09T09:47:03.887Z,1430.85
2023-04-09T09:48:03.944Z,1499.44
2023-04-09T09:49:03.863Z,1553.12
2023-04-09T09:50:03.876Z,1567.60
2023-04-09T09:51:03.883Z,1659.47
2023-04-09T09:52:03.846Z,1798.13
2023-04-09T09:53:03.842Z,1875.87
2023-04-09T09:54:03.811Z,1864.17
2023-04-09T09:55:03.803Z,1826.20
2023-04-09T09:56:03.827Z,1815.11
2023-04-09T09:57:03.769Z,1769.74
2023-04-09T09:58:03.766Z,1824.97
2023-04-09T09:59:03.812Z,1719.95
2023-04-09T10:00:03.743Z,1577.71
2023-04-09T10:01:03.757Z,1494.44
2023-04-09T10:02:03.818Z,1516.35
2023-04-09T10:03:03.843Z,1506.16
2023-04-09T10:04:03.715Z,1469.94
2023-04-09T10:05:03.695Z,1433.90
2023-04-09T10:06:03.715Z,1366.87
2023-04-09T10:07:03.710Z,1349.05
2023-04-09T10:08:03.633Z,1429.33
2023-04-09T10:09:03.644Z,1531.02
2023-04-09T10:10:03.663Z,1620.48
2023-04-09T10:11:03.601Z,1649.29
2023-04-09T10:12:03.664Z,1622.44
2023-04-09T10:13:03.645Z,1562.14
2023-04-09T10:14:03.593Z,1536.27
2023-04-09T10:15:03.567Z,1496.11
2023-04-09T10:16:03.585Z,1538.90
2023-04-09T10:17:03.571Z,1604.05
2023-04-09T10:18:03.585Z,1685.46
2023-04-09T10:19:03.536Z,1795.73
2023-04-09T10:20:03.581Z,1844.99
2023-04-09T10:21:03.476Z,1938.04
2023-04-09T10:22:03.484Z,2044.07
2023-04-09T10:23:03.465Z,2103.21
2023-04-09T10:24:03.469Z,2000.00
2023-04-09T10:25:03.445Z,1871.95
2023-04-09T10:26:03.418Z,1728.79
2023-04-09T10:27:03.414Z,1659.47
2023-04-09T10:28:03.386Z,1624.40
2023-04-09T10:29:03.404Z,1652.33
2023-04-09T10:30:03.388Z,1726.57
2023-04-09T10:31:03.433Z,1856.45
2023-04-09T10:32:03.370Z,2138.31
2023-04-09T10:33:03.389Z,2285.47
2023-04-09T10:34:03.360Z,2384.75
2023-04-09T10:35:03.361Z,2365.88
2023-04-09T10:36:03.358Z,2427.80
2023-04-09T10:37:03.295Z,2384.75
2023-04-09T10:38:03.293Z,2260.50
2023-04-09T10:39:03.299Z,2095.01
2023-04-09T10:40:03.275Z,2098.28
2023-04-09T10:41:03.243Z,2221.30
2023-04-09T10:42:03.274Z,2397.50
2023-04-09T10:43:03.259Z,2601.55
2023-04-09T10:44:03.233Z,2858.66
2023-04-09T10:45:03.215Z,3264.56
2023-04-09T10:46:03.263Z,3424.57
2023-04-09T10:47:03.176Z,3457.58
2023-04-09T10:48:03.240Z,3318.94
2023-04-09T10:49:03.139Z,3345.77
2023-04-09T10:50:03.147Z,3504.89
2023-04-09T10:51:03.126Z,3720.61
2023-04-09T10:52:03.134Z,3859.40
2023-04-09T10:53:03.152Z,3775.44
2023-04-09T10:54:03.110Z,3637.59
2023-04-09T10:55:03.074Z,3601.07
2023-04-09T10:56:03.044Z,3479.95
2023-04-09T10:57:03.084Z,3405.06
2023-04-09T10:58:03.028Z,3312.81
2023-04-09T10:59:03.040Z,3229.29
2023-04-09T11:00:03.041Z,3221.56
2023-04-09T11:01:02.995Z,3077.80
2023-04-09T11:02:03.129Z,3053.35
2023-04-09T11:03:03.117Z,3135.20
2023-04-09T11:04:03.001Z,3190.98
2023-04-09T11:05:03.041Z,3162.84
2023-04-09T11:06:02.966Z,3210.02
2023-04-09T11:07:02.945Z,3252.72
2023-04-09T11:08:02.904Z,3286.50
2023-04-09T11:09:03.204Z,3366.71
2023-04-09T11:10:02.889Z,3337.47
2023-04-09T11:11:02.873Z,3329.21
2023-04-09T11:12:02.867Z,3400.76
2023-04-09T14:39:49.182Z,48.39
2023-04-09T14:40:50.167Z,94.66
2023-04-09T14:41:50.144Z,161.66
2023-04-09T14:42:50.188Z,240.85
2023-04-09T14:43:50.116Z,342.37
2023-04-09T14:44:50.127Z,470.80
2023-04-09T14:45:50.106Z,595.59
2023-04-09T14:46:50.139Z,752.66
2023-04-09T14:47:50.090Z,916.21
2023-04-09T14:48:50.085Z,1082.93
2023-04-09T14:49:50.059Z,1240.78
2023-04-09T14:50:50.044Z,1392.34
2023-04-09T14:51:50.025Z,1492.79
2023-04-09T14:52:49.988Z,1619.51
2023-04-09T14:53:49.992Z,1722.15
2023-04-09T14:54:49.963Z,1822.49
2023-04-09T14:55:50.146Z,1994.07
2023-04-09T14:56:49.972Z,2064.47
2023-04-09T14:57:49.945Z,2134.92
2023-04-09T14:58:49.964Z,2213.99
2023-04-09T14:59:49.912Z,2351.40
2023-04-09T15:00:49.895Z,2584.05
2023-04-09T15:01:49.961Z,2611.65
2023-04-09T15:02:50.088Z,2722.67
2023-04-09T15:03:50.041Z,2840.55
2023-04-09T15:04:50.032Z,3053.35
2023-04-09T15:05:50.258Z,3177.79
2023-04-09T15:06:49.832Z,3225.42
2023-04-09T15:07:49.847Z,3244.87
2023-04-09T15:08:49.805Z,3288.51
2023-04-09T15:09:49.780Z,3304.67
2023-04-09T15:10:50.412Z,3266.54
2023-04-09T15:11:49.751Z,3337.47
2023-04-09T15:12:49.761Z,3362.50
2023-04-09T15:13:49.836Z,3409.38
2023-04-09T15:14:49.835Z,3548.81
2023-04-09T15:15:49.726Z,3796.75
2023-04-09T15:16:49.750Z,4094.37
2023-04-09T15:17:49.857Z,4290.27
2023-04-09T15:18:49.696Z,4446.28
2023-04-09T15:19:49.668Z,4509.64
2023-04-09T15:20:49.632Z,4509.64
2023-04-09T15:21:49.654Z,4461.03
2023-04-09T15:22:49.652Z,4479.60
2023-04-09T15:23:49.606Z,4300.56
2023-04-09T15:24:49.600Z,4196.57
2023-04-09T15:25:49.586Z,4203.12
2023-04-09T15:26:49.567Z,4682.33
2023-04-09T15:27:49.657Z,4846.85
2023-04-09T15:28:49.549Z,4890.91
2023-04-09T15:29:49.540Z,5028.04
2023-04-09T15:30:49.536Z,5094.70
2023-04-09T15:31:49.580Z,4990.72
2023-04-09T15:32:49.509Z,4904.28
2023-04-09T15:33:49.653Z,4917.73
2023-04-09T15:34:49.502Z,5075.47
2023-04-09T15:35:49.513Z,5163.15
2023-04-09T15:36:49.583Z,5218.23
2023-04-09T15:37:49.425Z,5337.30
2023-04-09T15:38:49.601Z,5423.39
2023-04-09T15:39:49.616Z,5412.48
2023-04-09T15:40:49.381Z,5295.27
2023-04-09T15:41:49.435Z,5347.91
2023-04-09T15:42:49.372Z,5529.29
2023-04-09T15:43:49.925Z,5540.68
2023-04-09T15:44:49.369Z,5580.91
2023-04-09T15:45:49.374Z,5621.73
2023-04-09T15:46:49.292Z,5569.36
2023-04-09T15:47:49.313Z,5735.61
2023-04-09T15:48:49.478Z,6031.39
2023-04-09T15:49:49.277Z,5860.57
2023-04-09T15:50:49.244Z,5489.80
2023-04-09T15:51:49.240Z,5401.61
2023-04-09T15:52:49.449Z,5489.80
2023-04-09T15:53:49.209Z,5729.50
2023-04-09T15:54:49.215Z,5711.25
2023-04-09T15:55:49.204Z,5784.95
2023-04-09T15:56:49.223Z,5735.61
2023-04-09T15:57:49.166Z,5385.38
2023-04-09T15:58:49.157Z,5347.91
2023-04-09T15:59:49.137Z,5253.91
2023-04-09T16:00:49.136Z,5347.91
2023-04-09T16:01:49.222Z,5627.62